createdAt,value
2016-12-16T00:00:54.620Z,67.79
2016-12-16T00:01:54.951Z,67.97
2016-12-16T00:02:54.972Z,67.97
2016-12-16T00:03:54.987Z,68.07
2016-12-16T00:04:54.995Z,67.97
2016-12-16T00:05:55.008Z,67.59
2016-12-16T00:06:54.708Z,67.97
2016-12-16T00:07:54.723Z,68.07
2016-12-16T00:08:55.060Z,68.16
2016-12-16T00:09:54.751Z,68.16
2016-12-16T00:10:55.083Z,68.26
2016-12-16T00:11:54.784Z,67.12
2016-12-16T00:12:54.796Z,67.4
2016-12-16T00:13:55.128Z,67.5
2016-12-16T00:14:54.827Z,67.5
2016-12-16T00:15:54.841Z,67.5
2016-12-16T00:16:55.168Z,67.31
2016-12-16T00:17:54.904Z,67.4
2016-12-16T00:18:54.884Z,67.21
2016-12-16T00:19:55.215Z,67.12
2016-12-16T00:20:54.912Z,67.21
2016-12-16T00:21:55.245Z,67.59
2016-12-16T00:22:54.941Z,67.4
2016-12-16T00:23:54.957Z,67.31
2016-12-16T00:24:54.971Z,67.31
2016-12-16T00:25:54.987Z,67.79
2016-12-16T00:26:55.318Z,68.35
2016-12-16T00:27:55.016Z,67.97
2016-12-16T00:28:55.351Z,67.88
2016-12-16T00:29:55.045Z,68.44
2016-12-16T00:30:55.058Z,68.54
2016-12-16T00:31:55.391Z,68.64
2016-12-16T00:32:55.088Z,68.44
2016-12-16T00:33:55.420Z,68.54
2016-12-16T00:34:55.434Z,69.3
2016-12-16T00:35:55.459Z,68.64
2016-12-16T00:36:55.146Z,68.16
2016-12-16T00:37:55.477Z,68.07
2016-12-16T00:38:55.494Z,68.64
2016-12-16T00:39:55.211Z,68.16
2016-12-16T00:40:55.521Z,68.44
2016-12-16T00:41:55.535Z,68.64
2016-12-16T00:42:55.549Z,68.64
2016-12-16T00:43:55.568Z,68.35
2016-12-16T00:44:55.581Z,68.54
2016-12-16T00:45:55.591Z,68.35
2016-12-16T00:46:55.605Z,68.35
2016-12-16T00:47:55.306Z,68.44
2016-12-16T00:48:55.321Z,68.26
2016-12-16T00:49:55.651Z,67.97
2016-12-16T00:50:55.349Z,68.54
2016-12-16T00:51:55.581Z,68.07
2016-12-16T00:52:55.379Z,67.69
2016-12-16T00:53:55.393Z,66.93
2016-12-16T00:54:55.408Z,67.59
2016-12-16T00:55:55.738Z,67.69
2016-12-16T00:56:55.755Z,68.07
2016-12-16T00:57:55.776Z,68.44
2016-12-16T00:58:55.470Z,68.54
2016-12-16T00:59:55.480Z,69.3
2016-12-16T01:00:55.494Z,69.55
2016-12-16T01:01:55.511Z,69.55
2016-12-16T01:02:55.840Z,70.15
2016-12-16T01:03:55.538Z,70.06
2016-12-16T01:04:55.555Z,69.93
2016-12-16T01:05:55.884Z,70.06
2016-12-16T01:06:55.582Z,70.4
2016-12-16T01:07:55.913Z,70.21
2016-12-16T01:08:55.624Z,70.21
2016-12-16T01:09:55.943Z,69.74
2016-12-16T01:10:55.955Z,69.78
2016-12-16T01:11:55.653Z,70.12
2016-12-16T01:12:55.986Z,69.96
2016-12-16T01:13:55.997Z,69.74
2016-12-16T01:14:55.696Z,70.12
2016-12-16T01:15:55.712Z,70.5
2016-12-16T01:16:56.041Z,70.31
2016-12-16T01:17:56.056Z,70.03
2016-12-16T01:18:55.758Z,70.21
2016-12-16T01:19:55.768Z,69.59
2016-12-16T01:20:55.783Z,68.35
2016-12-16T01:21:55.798Z,68.64
2016-12-16T01:22:55.813Z,68.6
2016-12-16T01:23:56.159Z,68.23
2016-12-16T01:24:55.857Z,68.32
2016-12-16T01:25:56.175Z,68.41
2016-12-16T01:26:56.186Z,68.35
2016-12-16T01:27:55.885Z,68.26
2016-12-16T01:28:56.217Z,68.16
2016-12-16T01:29:55.916Z,68.54
2016-12-16T01:30:55.927Z,69.17
2016-12-16T01:31:56.257Z,69.27
2016-12-16T01:32:56.271Z,69.21
2016-12-16T01:33:56.287Z,68.64
2016-12-16T01:34:55.985Z,69.27
2016-12-16T01:35:56.315Z,69.08
2016-12-16T01:36:56.015Z,69.02
2016-12-16T01:37:56.355Z,69.17
2016-12-16T01:38:56.359Z,69.17
2016-12-16T01:39:56.375Z,68.26
2016-12-16T01:40:56.391Z,68.6
2016-12-16T01:41:56.114Z,68.6
2016-12-16T01:42:56.099Z,68.64
2016-12-16T01:43:56.430Z,68.64
2016-12-16T01:44:56.443Z,69.11
2016-12-16T01:45:56.144Z,68.44
2016-12-16T01:46:56.472Z,68.64
2016-12-16T01:47:56.488Z,68.07
2016-12-16T01:48:56.509Z,68.16
2016-12-16T01:49:56.201Z,68.07
2016-12-16T01:50:56.529Z,68.35
2016-12-16T01:51:56.545Z,68.35
2016-12-16T01:52:56.258Z,67.97
2016-12-16T01:53:56.575Z,67.79
2016-12-16T01:54:56.272Z,68.35
2016-12-16T01:55:56.286Z,68.51
2016-12-16T01:56:56.621Z,68.35
2016-12-16T01:57:56.628Z,68.54
2016-12-16T01:58:56.329Z,67.97
2016-12-16T01:59:56.344Z,68.32
2016-12-16T02:00:56.359Z,67.85
2016-12-16T02:01:56.372Z,68.51
2016-12-16T02:02:56.703Z,68.6
2016-12-16T02:03:56.717Z,68.13
2016-12-16T02:04:56.731Z,68.41
2016-12-16T02:05:56.746Z,68.6
2016-12-16T02:06:56.764Z,68.44
2016-12-16T02:07:56.773Z,68.35
2016-12-16T02:08:56.470Z,68.35
2016-12-16T02:09:56.486Z,68.44
2016-12-16T02:10:56.817Z,68.41
2016-12-16T02:11:56.514Z,68.89
2016-12-16T02:12:56.528Z,68.7
2016-12-16T02:13:56.543Z,68.51
2016-12-16T02:14:56.873Z,68.7
2016-12-16T02:15:56.574Z,68.41
2016-12-16T02:16:56.590Z,68.32
2016-12-16T02:17:56.601Z,69.27
2016-12-16T02:18:56.614Z,68.89
2016-12-16T02:19:56.944Z,68.6
2016-12-16T02:20:56.957Z,68.51
2016-12-16T02:21:56.986Z,68.41
2016-12-16T02:22:56.987Z,68.23
2016-12-16T02:23:57.000Z,68.41
2016-12-16T02:24:57.015Z,68.6
2016-12-16T02:25:57.028Z,68.51
2016-12-16T02:26:56.728Z,69.27
2016-12-16T02:27:57.057Z,69.36
2016-12-16T02:28:56.758Z,68.98
2016-12-16T02:29:57.086Z,68.41
2016-12-16T02:30:56.783Z,68.98
2016-12-16T02:31:57.115Z,69.55
2016-12-16T02:32:56.843Z,69.08
2016-12-16T02:33:56.861Z,69.08
2016-12-16T02:34:56.840Z,70.12
2016-12-16T02:35:57.176Z,70.03
2016-12-16T02:36:57.185Z,69.55
2016-12-16T02:37:57.200Z,69.46
2016-12-16T02:38:56.901Z,69.36
2016-12-16T02:39:57.230Z,68.51
2016-12-16T02:40:57.241Z,68.32
2016-12-16T02:41:56.941Z,68.13
2016-12-16T02:42:56.955Z,68.51
2016-12-16T02:43:57.284Z,68.6
2016-12-16T02:44:56.983Z,68.32
2016-12-16T02:45:57.313Z,68.04
2016-12-16T02:46:57.044Z,67.37
2016-12-16T02:47:57.341Z,68.04
2016-12-16T02:48:57.037Z,67.88
2016-12-16T02:49:57.369Z,68.41
2016-12-16T02:50:57.405Z,67.46
2016-12-16T02:51:57.096Z,67.65
2016-12-16T02:52:57.097Z,68.04
2016-12-16T02:53:57.427Z,68.41
2016-12-16T02:54:57.123Z,68.04
2016-12-16T02:55:57.141Z,68.51
2016-12-16T02:56:57.469Z,68.41
2016-12-16T02:57:57.484Z,68.41
2016-12-16T02:58:57.184Z,68.89
2016-12-16T02:59:57.193Z,68.79
2016-12-16T03:00:57.526Z,68.51
2016-12-16T03:01:57.223Z,68.23
2016-12-16T03:02:57.234Z,68.26
2016-12-16T03:03:57.252Z,68.32
2016-12-16T03:04:57.587Z,68.44
2016-12-16T03:05:57.286Z,68.44
2016-12-16T03:06:57.297Z,68.54
2016-12-16T03:07:57.308Z,68.54
2016-12-16T03:08:57.639Z,68.16
2016-12-16T03:09:57.653Z,67.69
2016-12-16T03:10:57.346Z,67.69
2016-12-16T03:11:57.364Z,68.44
2016-12-16T03:12:57.697Z,68.51
2016-12-16T03:13:57.710Z,68.41
2016-12-16T03:14:57.722Z,67.97
2016-12-16T03:15:57.749Z,67.94
2016-12-16T03:16:57.751Z,67.79
2016-12-16T03:17:57.448Z,68.04
2016-12-16T03:18:57.779Z,67.94
2016-12-16T03:19:57.813Z,67.5
2016-12-16T03:20:57.510Z,67.88
2016-12-16T03:21:57.504Z,67.4
2016-12-16T03:22:57.520Z,67.65
2016-12-16T03:23:57.845Z,67.69
2016-12-16T03:24:57.865Z,67.31
2016-12-16T03:25:57.879Z,67.37
2016-12-16T03:26:57.578Z,68.13
2016-12-16T03:27:57.907Z,68.79
2016-12-16T03:28:57.603Z,69.65
2016-12-16T03:29:57.618Z,69.27
2016-12-16T03:30:57.632Z,69.17
2016-12-16T03:31:57.647Z,69.27
2016-12-16T03:32:57.658Z,69.46
2016-12-16T03:33:57.689Z,69.08
2016-12-16T03:34:57.700Z,69.27
2016-12-16T03:35:58.023Z,69.65
2016-12-16T03:36:58.031Z,68.6
2016-12-16T03:37:57.730Z,68.51
2016-12-16T03:38:57.744Z,68.51
2016-12-16T03:39:58.075Z,68.79
2016-12-16T03:40:58.089Z,68.23
2016-12-16T03:41:58.103Z,68.79
2016-12-16T03:42:58.117Z,68.41
2016-12-16T03:43:58.129Z,69.55
2016-12-16T03:44:58.161Z,69.65
2016-12-16T03:45:57.844Z,70.03
2016-12-16T03:46:58.172Z,70.12
2016-12-16T03:47:57.871Z,69.55
2016-12-16T03:48:58.203Z,69.55
2016-12-16T03:49:58.214Z,69.74
2016-12-16T03:50:57.915Z,69.74
2016-12-16T03:51:57.948Z,70.37
2016-12-16T03:52:57.941Z,69.93
2016-12-16T03:53:58.272Z,70.09
2016-12-16T03:54:58.280Z,70.94
2016-12-16T03:55:58.302Z,70.84
2016-12-16T03:56:57.999Z,70.75
2016-12-16T03:57:58.324Z,69.65
2016-12-16T03:58:58.024Z,69.36
2016-12-16T03:59:58.038Z,69.27
2016-12-16T04:00:58.369Z,69.46
2016-12-16T04:01:58.066Z,69.99
2016-12-16T04:02:58.103Z,71.03
2016-12-16T04:03:58.111Z,71.03
2016-12-16T04:04:58.425Z,70.94
2016-12-16T04:05:58.120Z,70.47
2016-12-16T04:06:58.449Z,70.65
2016-12-16T04:07:58.147Z,69.74
2016-12-16T04:08:58.167Z,69.65
2016-12-16T04:09:58.176Z,69.46
2016-12-16T04:10:58.193Z,69.74
2016-12-16T04:11:58.521Z,69.55
2016-12-16T04:12:58.219Z,69.08
2016-12-16T04:13:58.548Z,69.74
2016-12-16T04:14:58.249Z,69.55
2016-12-16T04:15:58.262Z,69.65
2016-12-16T04:16:58.276Z,70.21
2016-12-16T04:17:58.290Z,70.31
2016-12-16T04:18:58.303Z,70.31
2016-12-16T04:19:58.316Z,69.55
2016-12-16T04:20:58.331Z,69.74
2016-12-16T04:21:58.662Z,69.93
2016-12-16T04:22:58.387Z,69.55
2016-12-16T04:23:58.373Z,68.41
2016-12-16T04:24:58.388Z,68.13
2016-12-16T04:25:58.403Z,68.41
2016-12-16T04:26:58.730Z,68.41
2016-12-16T04:27:58.765Z,68.41
2016-12-16T04:28:58.443Z,69.17
2016-12-16T04:29:58.457Z,69.17
2016-12-16T04:30:58.471Z,69.27
2016-12-16T04:31:58.802Z,68.51
2016-12-16T04:32:58.816Z,68.41
2016-12-16T04:33:58.833Z,68.32
2016-12-16T04:34:58.529Z,67.46
2016-12-16T04:35:58.856Z,67.37
2016-12-16T04:36:58.874Z,67.08
2016-12-16T04:37:58.887Z,67.56
2016-12-16T04:38:58.582Z,67.75
2016-12-16T04:39:58.914Z,67.37
2016-12-16T04:40:58.611Z,67.65
2016-12-16T04:41:58.627Z,67.56
2016-12-16T04:42:58.956Z,67.56
2016-12-16T04:43:58.651Z,67.27
2016-12-16T04:44:58.982Z,66.8
2016-12-16T04:45:58.679Z,67.37
2016-12-16T04:46:59.039Z,68.04
2016-12-16T04:47:59.024Z,68.32
2016-12-16T04:48:58.724Z,67.85
2016-12-16T04:49:58.740Z,68.32
2016-12-16T04:50:58.752Z,68.51
2016-12-16T04:51:59.080Z,68.41
2016-12-16T04:52:58.981Z,68.23
2016-12-16T04:53:59.116Z,68.51
2016-12-16T04:54:58.813Z,68.51
2016-12-16T04:55:58.819Z,68.41
2016-12-16T04:56:58.834Z,68.6
2016-12-16T04:57:58.952Z,68.13
2016-12-16T04:58:59.176Z,67.85
2016-12-16T04:59:59.192Z,66.89
2016-12-16T05:00:58.889Z,67.56
2016-12-16T05:01:59.219Z,67.46
2016-12-16T05:02:58.921Z,66.99
2016-12-16T05:03:58.932Z,67.46
2016-12-16T05:04:59.260Z,68.04
2016-12-16T05:05:58.961Z,67.75
2016-12-16T05:06:59.291Z,67.65
2016-12-16T05:07:59.310Z,67.46
2016-12-16T05:08:59.004Z,67.56
2016-12-16T05:09:59.014Z,67.37
2016-12-16T05:10:59.346Z,67.27
2016-12-16T05:11:59.359Z,67.08
2016-12-16T05:12:59.057Z,67.56
2016-12-16T05:13:59.071Z,67.65
2016-12-16T05:14:59.400Z,67.37
2016-12-16T05:15:59.416Z,67.65
2016-12-16T05:16:59.428Z,67.18
2016-12-16T05:17:59.441Z,67.75
2016-12-16T05:18:59.468Z,68.04
2016-12-16T05:19:59.152Z,68.04
2016-12-16T05:20:59.481Z,67.65
2016-12-16T05:21:59.494Z,67.46
2016-12-16T05:22:59.216Z,67.46
2016-12-16T05:23:59.226Z,67.27
2016-12-16T05:24:59.539Z,67.27
2016-12-16T05:25:59.553Z,67.65
2016-12-16T05:26:59.272Z,66.99
2016-12-16T05:27:59.264Z,67.65
2016-12-16T05:28:59.593Z,67.08
2016-12-16T05:29:59.611Z,67.14
2016-12-16T05:30:59.621Z,67.33
2016-12-16T05:31:59.319Z,67.08
2016-12-16T05:32:59.657Z,67.08
2016-12-16T05:33:59.346Z,67.08
2016-12-16T05:34:59.679Z,67.56
2016-12-16T05:35:59.690Z,66.8
2016-12-16T05:36:59.721Z,67.08
2016-12-16T05:37:59.417Z,66.61
2016-12-16T05:38:59.735Z,66.8
2016-12-16T05:39:59.431Z,67.18
2016-12-16T05:40:59.759Z,66.99
2016-12-16T05:41:59.457Z,67.08
2016-12-16T05:42:59.475Z,66.61
2016-12-16T05:43:59.487Z,66.96
2016-12-16T05:44:59.817Z,67.62
2016-12-16T05:45:59.830Z,67.46
2016-12-16T05:46:59.839Z,67.24
2016-12-16T05:47:59.542Z,67.46
2016-12-16T05:48:59.556Z,66.89
2016-12-16T05:49:59.570Z,67.65
2016-12-16T05:50:59.901Z,67.46
2016-12-16T05:51:59.597Z,67.46
2016-12-16T05:52:59.925Z,67.18
2016-12-16T05:53:59.937Z,67.37
2016-12-16T05:54:59.957Z,66.89
2016-12-16T05:55:59.652Z,66.61
2016-12-16T05:56:59.664Z,66.14
2016-12-16T05:57:59.682Z,65.66
2016-12-16T05:59:00.011Z,65.37
2016-12-16T05:59:59.710Z,66.04
2016-12-16T06:00:59.719Z,65.66
2016-12-16T06:01:59.735Z,65.85
2016-12-16T06:03:00.065Z,65.47
2016-12-16T06:03:59.763Z,65.66
2016-12-16T06:05:00.094Z,66.04
2016-12-16T06:06:00.106Z,66.42
2016-12-16T06:07:00.118Z,65.85
2016-12-16T06:07:59.821Z,65.85
2016-12-16T06:09:00.150Z,65.75
2016-12-16T06:09:59.847Z,66.04
2016-12-16T06:11:00.175Z,66.04
2016-12-16T06:11:59.873Z,66.14
2016-12-16T06:13:00.205Z,66.04
2016-12-16T06:13:59.901Z,65.85
2016-12-16T06:14:59.914Z,65.47
2016-12-16T06:15:59.931Z,65.66
2016-12-16T06:17:00.260Z,65.75
2016-12-16T06:17:59.966Z,65.85
2016-12-16T06:19:00.287Z,65.47
2016-12-16T06:19:59.985Z,64.71
2016-12-16T06:21:00.001Z,65
2016-12-16T06:22:00.012Z,65.56
2016-12-16T06:23:00.343Z,65.85
2016-12-16T06:24:00.358Z,65.85
2016-12-16T06:25:00.053Z,65.66
2016-12-16T06:26:00.386Z,65.37
2016-12-16T06:27:00.399Z,65.66
2016-12-16T06:28:00.433Z,65.56
2016-12-16T06:29:00.119Z,65.75
2016-12-16T06:30:00.441Z,65.37
2016-12-16T06:31:00.454Z,65.85
2016-12-16T06:32:00.467Z,65.37
2016-12-16T06:33:00.485Z,65.37
2016-12-16T06:34:00.185Z,65.66
2016-12-16T06:35:00.192Z,65.37
2016-12-16T06:36:00.523Z,65.66
2016-12-16T06:37:00.540Z,65.66
2016-12-16T06:38:00.248Z,65.56
2016-12-16T06:39:00.253Z,65.66
2016-12-16T06:40:00.583Z,65.09
2016-12-16T06:41:00.279Z,65.28
2016-12-16T06:42:00.297Z,65.37
2016-12-16T06:43:00.622Z,65.66
2016-12-16T06:44:00.321Z,66.23
2016-12-16T06:45:00.660Z,66.61
2016-12-16T06:46:00.665Z,65.95
2016-12-16T06:47:00.678Z,65.85
2016-12-16T06:48:00.691Z,65.75
2016-12-16T06:49:00.706Z,66.23
2016-12-16T06:50:00.404Z,66.23
2016-12-16T06:51:00.415Z,66.23
2016-12-16T06:52:00.747Z,65.75
2016-12-16T06:53:00.773Z,65.75
2016-12-16T06:54:00.459Z,65.47
2016-12-16T06:55:00.789Z,65.66
2016-12-16T06:56:00.488Z,65.47
2016-12-16T06:57:00.522Z,65.66
2016-12-16T06:58:00.832Z,64.71
2016-12-16T06:59:00.527Z,65.37
2016-12-16T07:00:00.542Z,65.28
2016-12-16T07:01:00.873Z,64.52
2016-12-16T07:02:00.889Z,64.9
2016-12-16T07:03:00.586Z,64.81
2016-12-16T07:04:00.599Z,64.43
2016-12-16T07:05:00.926Z,64.71
2016-12-16T07:06:00.625Z,64.24
2016-12-16T07:07:00.963Z,63.86
2016-12-16T07:08:00.970Z,64.33
2016-12-16T07:09:00.667Z,64.05
2016-12-16T07:10:01.000Z,64.33
2016-12-16T07:11:01.026Z,64.05
2016-12-16T07:12:00.724Z,63.48
2016-12-16T07:13:01.041Z,64.24
2016-12-16T07:14:00.736Z,64.43
2016-12-16T07:15:00.751Z,64.43
2016-12-16T07:16:01.082Z,63.86
2016-12-16T07:17:01.097Z,63.95
2016-12-16T07:18:01.110Z,64.14
2016-12-16T07:19:00.809Z,64.14
2016-12-16T07:20:00.822Z,65
2016-12-16T07:21:00.835Z,64.81
2016-12-16T07:22:00.848Z,65.66
2016-12-16T07:23:01.179Z,65.91
2016-12-16T07:24:01.191Z,65.72
2016-12-16T07:25:01.210Z,65.91
2016-12-16T07:26:01.221Z,65.75
2016-12-16T07:27:01.235Z,65.37
2016-12-16T07:28:01.251Z,65.28
2016-12-16T07:29:01.311Z,65.19
2016-12-16T07:30:00.959Z,65.47
2016-12-16T07:31:00.977Z,65.09
2016-12-16T07:32:01.305Z,64.62
2016-12-16T07:33:01.346Z,65.19
2016-12-16T07:34:01.017Z,65.28
2016-12-16T07:35:01.057Z,65.47
2016-12-16T07:36:01.378Z,64.81
2016-12-16T07:37:01.058Z,64.62
2016-12-16T07:38:01.072Z,65.47
2016-12-16T07:39:01.400Z,65.56
2016-12-16T07:40:01.416Z,65.47
2016-12-16T07:41:01.113Z,65.56
2016-12-16T07:42:01.127Z,65.44
2016-12-16T07:43:01.141Z,65.82
2016-12-16T07:44:01.473Z,66.1
2016-12-16T07:45:01.484Z,66.39
2016-12-16T07:46:01.500Z,66.29
2016-12-16T07:47:01.196Z,66.67
2016-12-16T07:48:01.215Z,66.77
2016-12-16T07:49:01.221Z,66.39
2016-12-16T07:50:01.553Z,65.82
2016-12-16T07:52:01.265Z,66.58
2016-12-16T07:53:01.593Z,67.14
2016-12-16T07:54:01.463Z,66.2
2016-12-16T07:55:01.622Z,65.82
2016-12-16T07:56:01.633Z,65.72
2016-12-16T07:57:01.652Z,65.34
2016-12-16T07:58:01.666Z,65.34
2016-12-16T07:59:01.677Z,65.63
2016-12-16T08:00:01.372Z,65.53
2016-12-16T08:01:01.389Z,66.01
2016-12-16T08:02:01.414Z,64.97
2016-12-16T08:03:01.426Z,65.44
2016-12-16T08:04:01.742Z,64.78
2016-12-16T08:05:01.756Z,64.87
2016-12-16T08:06:01.456Z,65.63
2016-12-16T08:07:01.783Z,66.01
2016-12-16T08:08:01.799Z,66.29
2016-12-16T08:09:01.533Z,65.72
2016-12-16T08:10:01.520Z,66.39
2016-12-16T08:11:01.525Z,66.1
2016-12-16T08:12:01.538Z,65.63
2016-12-16T08:13:01.551Z,65.47
2016-12-16T08:14:01.565Z,65
2016-12-16T08:15:01.906Z,64.14
2016-12-16T08:16:01.603Z,65
2016-12-16T08:17:01.616Z,65.63
2016-12-16T08:18:01.620Z,65.63
2016-12-16T08:19:01.639Z,64.78
2016-12-16T08:20:01.961Z,64.59
2016-12-16T08:21:01.978Z,64.78
2016-12-16T08:22:01.988Z,65.72
2016-12-16T08:23:02.003Z,66.26
2016-12-16T08:24:02.051Z,66.39
2016-12-16T08:25:02.033Z,66.83
2016-12-16T08:26:02.042Z,67.49
2016-12-16T08:27:01.741Z,67.4
2016-12-16T08:28:01.755Z,67.49
2016-12-16T08:29:01.770Z,67.4
2016-12-16T08:30:02.100Z,67.58
2016-12-16T08:31:01.796Z,67.62
2016-12-16T08:32:02.127Z,67.43
2016-12-16T08:33:02.142Z,66.96
2016-12-16T08:34:02.156Z,66.96
2016-12-16T08:35:01.849Z,66.96
2016-12-16T08:36:02.179Z,66.96
2016-12-16T08:37:02.191Z,66.58
2016-12-16T08:38:01.940Z,65.34
2016-12-16T08:39:01.905Z,66.01
2016-12-16T08:40:01.918Z,66.39
2016-12-16T08:41:02.268Z,66.2
2016-12-16T08:42:02.261Z,66.39
2016-12-16T08:43:01.958Z,66.29
2016-12-16T08:44:02.290Z,66.39
2016-12-16T08:45:02.299Z,66.77
2016-12-16T08:46:02.027Z,66.58
2016-12-16T08:47:02.013Z,65.82
2016-12-16T08:48:02.025Z,65.53
2016-12-16T08:49:02.356Z,65.44
2016-12-16T08:50:02.053Z,66.2
2016-12-16T08:51:02.065Z,66.58
2016-12-16T08:52:02.082Z,66.1
2016-12-16T08:53:02.413Z,66.1
2016-12-16T08:54:02.108Z,66.39
2016-12-16T08:55:02.435Z,66.29
2016-12-16T08:56:02.139Z,65.63
2016-12-16T08:57:02.465Z,65.63
2016-12-16T08:58:02.479Z,65.63
2016-12-16T08:59:02.175Z,65.82
2016-12-16T09:00:02.193Z,65.53
2016-12-16T09:01:02.204Z,64.78
2016-12-16T09:02:02.532Z,64.33
2016-12-16T09:03:02.557Z,63.48
2016-12-16T09:04:02.245Z,64.49
2016-12-16T09:05:02.581Z,64.01
2016-12-16T09:06:02.587Z,64.4
2016-12-16T09:07:02.622Z,64.97
2016-12-16T09:08:02.617Z,64.68
2016-12-16T09:09:02.314Z,64.49
2016-12-16T09:10:02.325Z,64.68
2016-12-16T09:11:02.340Z,64.87
2016-12-16T09:12:02.354Z,65
2016-12-16T09:13:02.369Z,64.81
2016-12-16T09:14:02.382Z,65
2016-12-16T09:15:02.405Z,64.43
2016-12-16T09:16:02.726Z,63.86
2016-12-16T09:17:02.747Z,63.01
2016-12-16T09:18:02.436Z,63.2
2016-12-16T09:19:02.775Z,63.48
2016-12-16T09:20:02.779Z,63.76
2016-12-16T09:21:02.818Z,63.57
2016-12-16T09:22:02.810Z,63.86
2016-12-16T09:23:02.827Z,63.48
2016-12-16T09:24:02.524Z,63.76
2016-12-16T09:25:02.540Z,63.57
2016-12-16T09:26:02.548Z,63.64
2016-12-16T09:27:02.559Z,63.64
2016-12-16T09:28:02.891Z,64.11
2016-12-16T09:29:02.598Z,63.26
2016-12-16T09:30:02.916Z,64.3
2016-12-16T09:31:02.615Z,64.2
2016-12-16T09:32:02.627Z,64.87
2016-12-16T09:33:02.646Z,64.11
2016-12-16T09:34:02.657Z,64.3
2016-12-16T09:35:02.989Z,64.2
2016-12-16T09:36:02.694Z,64.3
2016-12-16T09:37:03.012Z,64.2
2016-12-16T09:38:02.713Z,64.2
2016-12-16T09:39:02.729Z,64.3
2016-12-16T09:40:02.738Z,63.95
2016-12-16T09:41:02.765Z,63.76
2016-12-16T09:42:03.086Z,63.57
2016-12-16T09:43:03.114Z,63.67
2016-12-16T09:44:02.797Z,63.92
2016-12-16T09:45:03.121Z,64.4
2016-12-16T09:46:03.161Z,64.49
2016-12-16T09:47:02.837Z,64.4
2016-12-16T09:48:02.854Z,63.64
2016-12-16T09:49:02.866Z,63.92
2016-12-16T09:50:03.193Z,63.92
2016-12-16T09:51:03.214Z,64.2
2016-12-16T09:52:03.219Z,64.3
2016-12-16T09:53:03.242Z,64.49
2016-12-16T09:54:02.929Z,64.59
2016-12-16T09:55:03.264Z,64.11
2016-12-16T09:56:03.273Z,64.49
2016-12-16T09:57:03.297Z,64.01
2016-12-16T09:58:03.304Z,63.45
2016-12-16T09:59:03.315Z,63.86
2016-12-16T10:00:03.330Z,63.2
2016-12-16T10:01:03.030Z,62.15
2016-12-16T10:02:03.357Z,62.91
2016-12-16T10:03:03.370Z,63.07
2016-12-16T10:04:03.065Z,63.2
2016-12-16T10:05:03.083Z,62.72
2016-12-16T10:06:03.096Z,62.69
2016-12-16T10:07:03.429Z,62.69
2016-12-16T10:08:03.460Z,62.31
2016-12-16T10:09:03.462Z,62.12
2016-12-16T10:10:03.157Z,62.69
2016-12-16T10:11:03.491Z,62.88
2016-12-16T10:12:03.512Z,62.97
2016-12-16T10:13:03.515Z,63.17
2016-12-16T10:14:03.204Z,63.82
2016-12-16T10:15:03.220Z,63.73
2016-12-16T10:16:03.238Z,63.73
2016-12-16T10:17:03.248Z,63.35
2016-12-16T10:18:03.262Z,63.07
2016-12-16T10:19:03.592Z,63.17
2016-12-16T10:20:03.605Z,63.64
2016-12-16T10:21:03.629Z,64.4
2016-12-16T10:22:03.639Z,64.36
2016-12-16T10:23:03.646Z,64.27
2016-12-16T10:24:03.343Z,64.55
2016-12-16T10:25:03.362Z,65.59
2016-12-16T10:26:03.386Z,65.5
2016-12-16T10:27:03.699Z,65.69
2016-12-16T10:28:03.395Z,66.29
2016-12-16T10:29:03.740Z,65.53
2016-12-16T10:30:03.422Z,65.06
2016-12-16T10:31:03.753Z,64.2
2016-12-16T10:32:03.771Z,64.11
2016-12-16T10:33:03.819Z,64.2
2016-12-16T10:34:03.795Z,64.59
2016-12-16T10:35:03.808Z,64.97
2016-12-16T10:36:03.826Z,64.59
2016-12-16T10:37:03.532Z,64.4
2016-12-16T10:38:03.846Z,64.4
2016-12-16T10:39:03.559Z,64.97
2016-12-16T10:40:03.561Z,64.59
2016-12-16T10:41:03.894Z,64.3
2016-12-16T10:42:03.585Z,64.01
2016-12-16T10:43:03.600Z,64.11
2016-12-16T10:44:03.614Z,63.64
2016-12-16T10:45:03.942Z,63.64
2016-12-16T10:46:03.955Z,62.97
2016-12-16T10:47:03.973Z,62.59
2016-12-16T10:48:03.677Z,63.07
2016-12-16T10:49:04.006Z,62.97
2016-12-16T10:50:03.697Z,62.69
2016-12-16T10:51:04.025Z,62.97
2016-12-16T10:52:04.036Z,62.97
2016-12-16T10:53:04.065Z,62.59
2016-12-16T10:54:03.750Z,63.07
2016-12-16T10:55:04.097Z,62.21
2016-12-16T10:56:04.090Z,62.21
2016-12-16T10:57:04.104Z,62.31
2016-12-16T10:58:04.127Z,62.69
2016-12-16T10:59:04.133Z,62.78
2016-12-16T11:00:03.831Z,62.69
2016-12-16T11:01:03.857Z,62.59
2016-12-16T11:02:03.865Z,63.07
2016-12-16T11:03:03.875Z,63.17
2016-12-16T11:04:03.884Z,63.26
2016-12-16T11:05:03.902Z,63.64
2016-12-16T11:06:03.909Z,62.97
2016-12-16T11:07:04.246Z,62.5
2016-12-16T11:08:04.259Z,62.69
2016-12-16T11:09:03.954Z,63.07
2016-12-16T11:10:03.967Z,62.78
2016-12-16T11:11:03.984Z,62.5
2016-12-16T11:12:04.313Z,62.69
2016-12-16T11:13:04.008Z,62.05
2016-12-16T11:14:04.340Z,62.82
2016-12-16T11:15:04.367Z,62.15
2016-12-16T11:16:04.048Z,62.24
2016-12-16T11:17:04.076Z,62.15
2016-12-16T11:18:04.099Z,62.43
2016-12-16T11:19:04.416Z,62.15
2016-12-16T11:20:04.107Z,62.34
2016-12-16T11:21:04.434Z,62.05
2016-12-16T11:22:04.134Z,62.88
2016-12-16T11:23:04.462Z,62.69
2016-12-16T11:24:04.165Z,62.59
2016-12-16T11:25:04.493Z,63.07
2016-12-16T11:26:04.505Z,62.43
2016-12-16T11:27:04.529Z,61.87
2016-12-16T11:28:04.216Z,61.87
2016-12-16T11:29:04.549Z,61.68
2016-12-16T11:30:04.561Z,62.15
2016-12-16T11:31:04.279Z,62.21
2016-12-16T11:32:04.290Z,62.69
2016-12-16T11:33:04.603Z,62.97
2016-12-16T11:34:04.300Z,62.5
2016-12-16T11:35:04.633Z,62.15
2016-12-16T11:36:04.643Z,62.24
2016-12-16T11:37:04.340Z,62.59
2016-12-16T11:38:04.355Z,62.5
2016-12-16T11:39:04.402Z,62.31
2016-12-16T11:40:04.385Z,62.78
2016-12-16T11:41:04.713Z,62.78
2016-12-16T11:42:04.410Z,62.24
2016-12-16T11:43:04.738Z,61.58
2016-12-16T11:44:04.755Z,61.77
2016-12-16T11:45:04.769Z,62.43
2016-12-16T11:46:04.468Z,62.34
2016-12-16T11:47:04.821Z,61.58
2016-12-16T11:48:04.494Z,61.87
2016-12-16T11:49:04.833Z,61.96
2016-12-16T11:50:04.525Z,61.68
2016-12-16T11:51:04.537Z,62.24
2016-12-16T11:52:04.552Z,61.87
2016-12-16T11:53:04.886Z,61.77
2016-12-16T11:54:04.591Z,61.68
2016-12-16T11:55:04.916Z,61.96
2016-12-16T11:56:04.610Z,62.02
2016-12-16T11:57:04.623Z,61.93
2016-12-16T11:58:04.950Z,62.24
2016-12-16T11:59:04.965Z,62.05
2016-12-16T12:00:04.984Z,61.77
2016-12-16T12:01:04.677Z,61.2
2016-12-16T12:02:04.695Z,60.73
2016-12-16T12:03:05.024Z,61.77
2016-12-16T12:04:05.041Z,61.3
2016-12-16T12:05:04.734Z,61.68
2016-12-16T12:06:04.748Z,61.01
2016-12-16T12:07:05.084Z,61.49
2016-12-16T12:08:04.785Z,61.3
2016-12-16T12:09:05.109Z,61.77
2016-12-16T12:10:04.809Z,62.05
2016-12-16T12:11:05.138Z,61.68
2016-12-16T12:12:04.834Z,61.77
2016-12-16T12:13:05.166Z,62.15
2016-12-16T12:14:04.862Z,61.3
2016-12-16T12:15:04.876Z,61.3
2016-12-16T12:16:05.205Z,61.11
2016-12-16T12:17:05.221Z,61.77
2016-12-16T12:18:04.918Z,61.77
2016-12-16T12:19:05.251Z,61.11
2016-12-16T12:20:05.267Z,60.92
2016-12-16T12:21:05.276Z,60.06
2016-12-16T12:22:05.298Z,59.3
2016-12-16T12:23:04.995Z,58.73
2016-12-16T12:24:05.001Z,59.11
2016-12-16T12:25:05.357Z,60.06
2016-12-16T12:26:05.349Z,60.06
2016-12-16T12:27:05.360Z,60.25
2016-12-16T12:28:05.062Z,60.82
2016-12-16T12:29:05.388Z,61.17
2016-12-16T12:30:05.086Z,61.36
2016-12-16T12:31:05.100Z,61.55
2016-12-16T12:32:05.114Z,61.83
2016-12-16T12:33:05.132Z,61.77
2016-12-16T12:34:05.457Z,61.68
2016-12-16T12:35:05.475Z,61.77
2016-12-16T12:36:05.491Z,62.15
2016-12-16T12:37:05.501Z,62.21
2016-12-16T12:38:05.206Z,62.05
2016-12-16T12:39:05.215Z,62.43
2016-12-16T12:40:05.229Z,61.77
2016-12-16T12:41:05.558Z,61.83
2016-12-16T12:42:05.571Z,61.83
2016-12-16T12:43:05.270Z,61.96
2016-12-16T12:44:05.599Z,61.87
2016-12-16T12:45:05.300Z,61.68
2016-12-16T12:46:05.630Z,61.3
2016-12-16T12:47:05.327Z,61.3
2016-12-16T12:48:05.341Z,61.39
2016-12-16T12:49:05.353Z,61.2
2016-12-16T12:50:05.686Z,61.3
2016-12-16T12:51:05.399Z,61.39
2016-12-16T12:52:05.711Z,61.3
2016-12-16T12:53:05.411Z,61.68
2016-12-16T12:54:05.424Z,61.3
2016-12-16T12:55:05.444Z,61.2
2016-12-16T12:56:05.451Z,61.39
2016-12-16T12:57:05.465Z,61.2